createdAt,value
2022-08-05T00:00:20.028Z,55.22
2022-08-05T00:02:55.240Z,55.17
2022-08-05T00:06:02.133Z,55.27
2022-08-05T00:08:34.054Z,55.38
2022-08-05T00:11:00.846Z,55.48
2022-08-05T00:13:39.503Z,56.09
2022-08-05T00:16:10.873Z,55.82
2022-08-05T00:18:40.631Z,56.05
2022-08-05T00:21:09.290Z,56.03
2022-08-05T00:23:46.345Z,56.33
2022-08-05T00:26:20.664Z,56.19
2022-08-05T00:28:49.362Z,56.17
2022-08-05T00:31:16.431Z,56.40
2022-08-05T00:34:55.262Z,56.51
2022-08-05T00:37:12.745Z,56.20
2022-08-05T00:39:57.158Z,56.54
2022-08-05T00:42:36.657Z,56.37
2022-08-05T00:45:08.701Z,56.81
2022-08-05T00:47:57.018Z,56.82
2022-08-05T00:50:25.501Z,56.70
2022-08-05T00:52:55.482Z,56.86
2022-08-05T00:55:29.041Z,57.15
2022-08-05T00:58:11.191Z,57.24
2022-08-05T01:00:38.663Z,57.09
2022-08-05T01:03:07.566Z,57.11
2022-08-05T01:05:35.219Z,57.58
2022-08-05T01:08:41.290Z,57.40
2022-08-05T01:10:56.280Z,57.27
2022-08-05T01:13:58.335Z,57.48
2022-08-05T01:16:45.266Z,57.51
2022-08-05T01:19:56.455Z,57.44
2022-08-05T01:22:24.415Z,57.55
2022-08-05T01:25:40.356Z,57.87
2022-08-05T01:28:17.039Z,57.48
2022-08-05T01:30:53.818Z,57.83
2022-08-05T01:33:26.390Z,57.78
2022-08-05T01:35:55.672Z,57.74
2022-08-05T01:38:29.308Z,57.48
2022-08-05T01:41:02.034Z,57.40
2022-08-05T01:43:33.831Z,57.93
2022-08-05T01:46:07.350Z,57.77
2022-08-05T01:48:49.433Z,58.09
2022-08-05T01:51:18.847Z,57.73
2022-08-05T01:53:57.273Z,58.11
2022-08-05T01:58:11.070Z,58.07
2022-08-05T01:59:20.655Z,58.10
2022-08-05T02:01:49.588Z,58.05
2022-08-05T02:04:20.464Z,58.25
2022-08-05T02:06:47.888Z,58.40
2022-08-05T02:09:14.814Z,58.29
2022-08-05T02:11:52.577Z,58.35
2022-08-05T02:14:47.937Z,58.15
2022-08-05T02:18:14.508Z,58.23
2022-08-05T02:20:14.232Z,58.03
2022-08-05T02:23:03.629Z,58.24
2022-08-05T02:25:49.418Z,58.38
2022-08-05T02:28:28.302Z,58.48
2022-08-05T02:31:00.334Z,58.19
2022-08-05T02:33:36.264Z,58.32
2022-08-05T02:36:09.480Z,58.16
2022-08-05T02:38:37.615Z,58.32
2022-08-05T02:41:17.315Z,58.56
2022-08-05T02:44:02.901Z,58.23
2022-08-05T02:46:53.206Z,58.23
2022-08-05T02:49:40.579Z,58.25
2022-08-05T02:52:29.887Z,58.40
2022-08-05T02:54:58.609Z,58.33
2022-08-05T02:58:19.948Z,58.31
2022-08-05T03:00:17.081Z,58.04
2022-08-05T03:02:45.443Z,58.38
2022-08-05T03:05:15.113Z,58.04
2022-08-05T03:08:04.620Z,58.36
2022-08-05T03:10:29.850Z,58.20
2022-08-05T03:15:26.618Z,58.50
2022-08-05T03:17:58.049Z,58.32
2022-08-05T03:20:26.365Z,58.60
2022-08-05T03:22:57.725Z,58.64
2022-08-05T03:25:32.763Z,58.72
2022-08-05T03:28:14.125Z,58.70
2022-08-05T03:30:41.295Z,58.72
2022-08-05T03:33:10.076Z,58.67
2022-08-05T03:35:40.731Z,58.90
2022-08-05T03:38:10.955Z,58.85
2022-08-05T03:40:45.379Z,58.85
2022-08-05T03:44:09.796Z,59.41
2022-08-05T03:46:08.271Z,58.86
2022-08-05T03:48:36.641Z,58.79
2022-08-05T03:52:38.612Z,58.92
2022-08-05T03:55:50.017Z,58.90
2022-08-05T03:57:16.344Z,58.80
2022-08-05T03:59:54.786Z,58.83
2022-08-05T04:02:38.487Z,58.90
2022-08-05T04:05:16.838Z,58.77
2022-08-05T04:07:51.439Z,58.88
2022-08-05T04:10:27.916Z,58.65
2022-08-05T04:12:59.020Z,58.96
2022-08-05T04:15:27.935Z,58.84
2022-08-05T04:18:07.034Z,58.75
2022-08-05T04:20:36.123Z,58.97
2022-08-05T04:23:03.832Z,59.15
2022-08-05T04:25:56.966Z,59.08
2022-08-05T04:28:18.337Z,58.86
2022-08-05T04:30:45.511Z,58.60
2022-08-05T04:33:16.886Z,58.90
2022-08-05T04:36:16.539Z,58.81
2022-08-05T04:38:51.045Z,58.89
2022-08-05T04:41:19.141Z,58.75
2022-08-05T04:43:48.199Z,58.77
2022-08-05T04:46:28.390Z,58.99
2022-08-05T04:48:58.011Z,58.75
2022-08-05T04:51:25.557Z,58.95
2022-08-05T04:54:01.444Z,59.14
2022-08-05T04:56:34.374Z,59.31
2022-08-05T04:59:22.255Z,59.11
2022-08-05T05:02:08.117Z,59.30
2022-08-05T05:04:36.049Z,59.18
2022-08-05T05:07:05.188Z,59.30
2022-08-05T05:09:37.402Z,59.05
2022-08-05T05:12:06.202Z,59.20
2022-08-05T05:14:32.994Z,58.99
2022-08-05T05:17:03.784Z,58.89
2022-08-05T05:19:37.171Z,59.17
2022-08-05T05:22:24.432Z,59.00
2022-08-05T05:24:56.852Z,59.05
2022-08-05T05:27:44.479Z,59.13
2022-08-05T05:30:31.185Z,59.13
2022-08-05T05:33:14.016Z,59.00
2022-08-05T05:35:46.824Z,59.24
2022-08-05T05:38:14.544Z,59.32
2022-08-05T05:40:49.876Z,59.08
2022-08-05T05:43:22.350Z,59.14
2022-08-05T05:46:12.167Z,58.96
2022-08-05T05:48:43.979Z,58.88
2022-08-05T05:51:15.501Z,59.29
2022-08-05T05:53:54.184Z,59.27
2022-08-05T05:56:32.387Z,59.34
2022-08-05T05:59:06.412Z,59.28
2022-08-05T06:01:39.652Z,59.27
2022-08-05T06:04:12.733Z,59.57
2022-08-05T06:06:42.388Z,59.41
2022-08-05T06:09:09.625Z,59.42
2022-08-05T06:11:59.198Z,59.50
2022-08-05T06:14:28.996Z,59.62
2022-08-05T06:16:56.822Z,59.92
2022-08-05T06:19:32.897Z,59.90
2022-08-05T06:22:06.322Z,59.63
2022-08-05T06:24:48.313Z,59.68
2022-08-05T06:27:17.321Z,59.45
2022-08-05T06:30:07.432Z,59.65
2022-08-05T06:32:44.948Z,59.52
2022-08-05T06:35:21.599Z,59.66
2022-08-05T06:38:04.303Z,59.60
2022-08-05T06:40:37.720Z,59.42
2022-08-05T06:43:57.412Z,59.49
2022-08-05T06:46:06.695Z,59.98
2022-08-05T06:48:53.701Z,59.35
2022-08-05T06:51:28.334Z,59.76
2022-08-05T06:54:01.937Z,59.92
2022-08-05T06:56:29.768Z,59.81
2022-08-05T06:58:57.255Z,59.96
2022-08-05T07:01:32.487Z,60.03
2022-08-05T07:04:03.389Z,60.01
2022-08-05T07:06:30.382Z,60.03
2022-08-05T07:08:59.208Z,60.21
2022-08-05T07:11:27.902Z,60.44
2022-08-05T07:14:20.486Z,60.23
2022-08-05T07:18:01.761Z,60.13
2022-08-05T07:22:34.054Z,60.17
2022-08-05T07:25:23.300Z,60.35
2022-08-05T07:27:57.065Z,60.54
2022-08-05T07:30:32.089Z,60.37
2022-08-05T07:33:04.954Z,60.49
2022-08-05T07:36:03.790Z,60.40
2022-08-05T07:38:32.803Z,60.45
2022-08-05T07:42:09.395Z,60.27
2022-08-05T07:43:57.930Z,60.33
2022-08-05T07:46:30.481Z,60.34
2022-08-05T07:49:03.285Z,60.27
2022-08-05T07:51:36.856Z,60.28
2022-08-05T07:54:08.561Z,60.21
2022-08-05T07:57:00.356Z,60.05
2022-08-05T07:59:37.996Z,60.04
2022-08-05T08:02:10.641Z,59.87
2022-08-05T08:04:46.643Z,59.54
2022-08-05T08:07:13.902Z,59.47
2022-08-05T08:09:41.710Z,59.27
2022-08-05T08:12:19.896Z,59.43
2022-08-05T08:14:56.241Z,59.21
2022-08-05T08:17:23.278Z,59.42
2022-08-05T08:20:22.957Z,59.40
2022-08-05T08:22:36.846Z,58.94
2022-08-05T08:25:15.870Z,58.86
2022-08-05T08:27:45.054Z,58.65
2022-08-05T08:30:29.782Z,58.30
2022-08-05T08:33:13.811Z,57.81
2022-08-05T08:35:53.896Z,57.37
2022-08-05T08:38:35.913Z,57.23
2022-08-05T08:41:08.268Z,56.84
2022-08-05T08:45:23.124Z,56.34
2022-08-05T08:46:29.290Z,56.06
2022-08-05T08:49:06.173Z,56.03
2022-08-05T08:52:04.359Z,55.79
2022-08-05T08:54:36.562Z,55.64
2022-08-05T08:57:11.322Z,55.54
2022-08-05T08:59:38.760Z,55.31
2022-08-05T09:02:08.994Z,54.66
2022-08-05T09:04:58.118Z,54.37
2022-08-05T09:07:28.651Z,54.39
2022-08-05T09:09:56.276Z,54.05
2022-08-05T09:12:27.331Z,54.19
2022-08-05T09:14:59.203Z,54.19
2022-08-05T09:17:42.459Z,53.65
2022-08-05T09:20:36.171Z,53.58
2022-08-05T09:23:19.550Z,53.21
2022-08-05T09:26:01.718Z,52.74
2022-08-05T09:28:33.527Z,52.84
2022-08-05T09:31:43.687Z,52.79
2022-08-05T09:34:06.278Z,52.74
2022-08-05T09:36:56.173Z,52.35
2022-08-05T09:39:41.880Z,52.48
2022-08-05T09:42:22.977Z,52.32
2022-08-05T09:44:56.748Z,51.65
2022-08-05T09:47:36.450Z,51.47
2022-08-05T09:50:13.743Z,51.63
2022-08-05T09:52:45.411Z,51.36
2022-08-05T09:55:56.795Z,50.83
2022-08-05T09:58:00.300Z,50.48
2022-08-05T10:00:30.626Z,50.04
2022-08-05T10:03:09.891Z,49.88
2022-08-05T10:05:37.006Z,49.93
2022-08-05T10:08:34.677Z,50.07
2022-08-05T10:10:54.682Z,50.10
2022-08-05T10:13:47.772Z,50.10
2022-08-05T10:16:28.960Z,50.21
2022-08-05T10:18:57.145Z,50.18
2022-08-05T10:21:24.190Z,49.94
2022-08-05T10:23:59.192Z,49.43
2022-08-05T10:26:32.503Z,49.16
2022-08-05T10:29:00.646Z,49.21
2022-08-05T10:32:54.589Z,48.66
2022-08-05T10:34:14.567Z,48.67
2022-08-05T10:36:44.097Z,48.51
2022-08-05T10:40:03.157Z,48.15
2022-08-05T10:42:32.427Z,47.60
2022-08-05T10:45:21.016Z,47.00
2022-08-05T10:48:30.341Z,46.66
2022-08-05T10:51:22.062Z,45.43
2022-08-05T10:54:01.957Z,45.45
2022-08-05T10:56:53.167Z,45.10
2022-08-05T11:00:03.677Z,43.81
2022-08-05T11:02:37.550Z,43.16
2022-08-05T11:05:09.394Z,42.45
2022-08-05T11:08:01.155Z,41.91
2022-08-05T11:10:31.748Z,41.49
2022-08-05T11:13:01.322Z,40.88
2022-08-05T11:15:59.498Z,40.35
2022-08-05T11:18:34.493Z,40.41
2022-08-05T11:21:06.258Z,39.80
2022-08-05T11:24:05.536Z,39.34
2022-08-05T11:26:40.325Z,39.77
2022-08-05T11:29:13.333Z,38.66
2022-08-05T11:31:57.004Z,38.22
2022-08-05T11:34:38.415Z,37.68
2022-08-05T11:37:06.194Z,37.58
2022-08-05T11:39:55.287Z,37.31
2022-08-05T11:42:28.470Z,36.99
2022-08-05T11:45:05.335Z,36.41
2022-08-05T11:47:48.854Z,36.29
2022-08-05T11:50:17.859Z,36.16
2022-08-05T11:52:48.894Z,36.37
2022-08-05T11:55:20.062Z,35.84
2022-08-05T11:58:09.840Z,35.46
2022-08-05T12:00:38.124Z,35.23
2022-08-05T12:03:29.194Z,34.47
2022-08-05T12:06:05.783Z,35.09
2022-08-05T12:08:33.368Z,35.79
2022-08-05T12:11:05.575Z,35.21
2022-08-05T12:13:48.933Z,35.09
2022-08-05T12:16:19.336Z,35.08
2022-08-05T12:18:49.399Z,34.74
2022-08-05T12:21:21.211Z,34.60
2022-08-05T12:24:07.594Z,34.14
2022-08-05T12:26:43.905Z,34.34
2022-08-05T12:29:38.717Z,33.75
2022-08-05T12:32:07.430Z,33.94
2022-08-05T12:34:38.172Z,33.93
2022-08-05T12:37:30.108Z,34.04
2022-08-05T12:40:03.038Z,34.50
2022-08-05T12:42:31.202Z,34.30
2022-08-05T12:45:10.088Z,33.89
2022-08-05T12:47:37.816Z,33.92
2022-08-05T12:50:16.163Z,33.53
2022-08-05T12:52:43.243Z,33.23
2022-08-05T12:55:22.157Z,32.75
2022-08-05T12:58:49.409Z,33.01
2022-08-05T13:02:05.889Z,32.75
2022-08-05T13:03:38.981Z,32.50
2022-08-05T13:06:10.518Z,32.63
2022-08-05T13:08:38.870Z,32.64
2022-08-05T13:11:07.782Z,32.29
2022-08-05T13:14:05.434Z,31.67
2022-08-05T13:16:27.836Z,32.03
2022-08-05T13:18:57.761Z,31.76
2022-08-05T13:21:28.550Z,31.64
2022-08-05T13:24:05.697Z,31.29
2022-08-05T13:26:32.836Z,31.61
2022-08-05T13:28:59.768Z,31.48
2022-08-05T13:31:33.879Z,31.40
2022-08-05T13:34:23.890Z,31.97
2022-08-05T13:36:53.776Z,31.91
2022-08-05T13:39:24.564Z,31.76
2022-08-05T13:42:07.936Z,31.25
2022-08-05T13:44:45.865Z,30.81
2022-08-05T13:47:34.764Z,30.93
2022-08-05T13:50:05.491Z,31.18
2022-08-05T13:52:35.530Z,31.15
2022-08-05T13:55:07.747Z,30.41
2022-08-05T13:57:50.792Z,30.48
2022-08-05T14:00:27.293Z,29.23
2022-08-05T14:03:01.141Z,29.24
2022-08-05T14:05:48.220Z,28.83
2022-08-05T14:08:20.192Z,29.04
2022-08-05T14:10:54.230Z,29.42
2022-08-05T14:13:34.205Z,29.55
2022-08-05T14:16:06.853Z,29.73
2022-08-05T14:18:37.968Z,29.74
2022-08-05T14:22:07.686Z,29.59
2022-08-05T14:23:54.398Z,29.60
2022-08-05T14:26:36.784Z,29.53
2022-08-05T14:29:16.333Z,29.33
2022-08-05T14:32:03.227Z,29.34
2022-08-05T14:34:38.655Z,29.30
2022-08-05T14:37:07.205Z,29.11
2022-08-05T14:39:50.246Z,29.54
2022-08-05T14:42:24.987Z,29.23
2022-08-05T14:44:56.730Z,28.56
2022-08-05T14:48:04.857Z,28.57
2022-08-05T14:50:17.406Z,28.92
2022-08-05T14:52:53.056Z,28.79
2022-08-05T14:55:38.671Z,29.51
2022-08-05T14:58:11.656Z,29.39
2022-08-05T15:00:58.577Z,29.29
2022-08-05T15:03:27.742Z,28.98
2022-08-05T15:06:08.330Z,29.07
2022-08-05T15:09:01.484Z,29.25
2022-08-05T15:11:50.884Z,29.54
2022-08-05T15:14:35.115Z,29.82
2022-08-05T15:17:09.937Z,29.63
2022-08-05T15:19:55.848Z,29.94
2022-08-05T15:22:27.197Z,29.66
2022-08-05T15:24:55.778Z,29.79
2022-08-05T15:27:22.298Z,29.93
2022-08-05T15:29:53.015Z,30.07
2022-08-05T15:32:27.378Z,30.32
2022-08-05T15:34:57.418Z,30.37
2022-08-05T15:38:33.252Z,30.66
2022-08-05T15:41:01.188Z,30.79
2022-08-05T15:43:12.884Z,30.88
2022-08-05T15:45:46.656Z,30.65
2022-08-05T15:48:14.775Z,31.01
2022-08-05T15:50:43.787Z,31.25
2022-08-05T15:53:14.403Z,31.27
2022-08-05T15:56:01.789Z,31.27
2022-08-05T15:58:29.199Z,31.17
2022-08-05T16:01:11.819Z,30.94
2022-08-05T16:03:50.789Z,30.60
2022-08-05T16:06:19.737Z,30.45
2022-08-05T16:08:51.098Z,30.60
2022-08-05T16:11:43.136Z,30.55
2022-08-05T16:14:10.736Z,30.45
2022-08-05T16:16:44.498Z,30.42
2022-08-05T16:19:25.867Z,30.43
2022-08-05T16:22:02.952Z,30.31
2022-08-05T16:24:39.831Z,30.77
2022-08-05T16:27:15.768Z,30.76
2022-08-05T16:29:47.218Z,30.80
2022-08-05T16:32:17.321Z,30.92
2022-08-05T16:34:54.156Z,31.08
2022-08-05T16:38:15.553Z,31.13
2022-08-05T16:40:25.163Z,31.00
2022-08-05T16:42:57.452Z,31.26
2022-08-05T16:46:05.057Z,31.24
2022-08-05T16:48:10.663Z,31.20
2022-08-05T16:50:37.524Z,31.27
2022-08-05T16:53:12.354Z,31.11
2022-08-05T16:55:49.253Z,31.00
2022-08-05T16:58:19.702Z,31.44
2022-08-05T17:00:48.131Z,31.73
2022-08-05T17:03:23.091Z,31.98
2022-08-05T17:05:54.204Z,32.06
2022-08-05T17:08:36.423Z,32.03
2022-08-05T17:11:16.811Z,32.21
2022-08-05T17:13:47.490Z,32.34
2022-08-05T17:16:33.408Z,32.58
2022-08-05T17:19:01.243Z,32.57
2022-08-05T17:21:35.646Z,32.37
2022-08-05T17:24:18.675Z,32.65
2022-08-05T17:26:58.517Z,32.80
2022-08-05T17:29:33.681Z,33.08
2022-08-05T17:32:11.507Z,33.34
2022-08-05T17:34:43.368Z,33.63
2022-08-05T17:37:39.779Z,33.52
2022-08-05T17:39:57.485Z,34.00
2022-08-05T17:42:32.177Z,33.77
2022-08-05T17:45:00.350Z,33.94
2022-08-05T17:47:37.356Z,34.31
2022-08-05T17:50:11.014Z,34.27
2022-08-05T17:52:53.115Z,34.27
2022-08-05T17:55:27.340Z,34.43
2022-08-05T17:58:02.097Z,34.08
2022-08-05T18:00:29.746Z,34.25
2022-08-05T18:02:58.311Z,33.71
2022-08-05T18:05:28.185Z,34.13
2022-08-05T18:08:01.863Z,33.87
2022-08-05T18:10:28.550Z,34.19
2022-08-05T18:13:00.343Z,34.39
2022-08-05T18:15:31.097Z,34.43
2022-08-05T18:18:05.546Z,34.46
2022-08-05T18:20:37.939Z,34.15
2022-08-05T18:23:12.334Z,34.37
2022-08-05T18:25:45.114Z,34.32
2022-08-05T18:28:16.177Z,34.59
2022-08-05T18:30:51.179Z,34.74
2022-08-05T18:33:24.166Z,34.56
2022-08-05T18:36:03.339Z,34.58
2022-08-05T18:38:35.070Z,34.70
2022-08-05T18:41:55.478Z,34.79
2022-08-05T18:43:53.465Z,34.95
2022-08-05T18:46:20.848Z,34.89
2022-08-05T18:48:54.097Z,35.09
2022-08-05T18:52:05.153Z,35.19
2022-08-05T18:54:31.911Z,34.91
2022-08-05T18:57:02.022Z,35.15
2022-08-05T18:59:42.778Z,35.02
2022-08-05T19:02:38.036Z,35.28
2022-08-05T19:06:06.312Z,35.74
2022-08-05T19:07:57.569Z,35.49
2022-08-05T19:10:28.480Z,35.86
2022-08-05T19:12:57.664Z,35.69
2022-08-05T19:15:57.935Z,35.74
2022-08-05T19:18:20.624Z,36.03
2022-08-05T19:20:52.113Z,36.24
2022-08-05T19:23:22.523Z,36.47
2022-08-05T19:26:08.490Z,36.28
2022-08-05T19:28:42.123Z,36.49
2022-08-05T19:31:13.522Z,36.97
2022-08-05T19:33:48.159Z,37.10
2022-08-05T19:36:23.006Z,37.08
2022-08-05T19:38:49.605Z,37.04
2022-08-05T19:41:16.178Z,37.31
2022-08-05T19:44:06.102Z,37.68
2022-08-05T19:46:33.987Z,37.58
2022-08-05T19:49:03.136Z,37.98
2022-08-05T19:52:04.497Z,37.97
2022-08-05T19:54:27.225Z,38.17
2022-08-05T19:56:59.653Z,38.13
2022-08-05T19:59:55.935Z,37.96
2022-08-05T20:02:20.672Z,38.37
2022-08-05T20:04:48.643Z,38.78
2022-08-05T20:07:15.652Z,39.02
2022-08-05T20:10:11.463Z,38.82
2022-08-05T20:12:39.962Z,38.75
2022-08-05T20:15:51.779Z,39.10
2022-08-05T20:18:33.424Z,38.75
2022-08-05T20:21:04.709Z,39.30
2022-08-05T20:23:50.895Z,39.34
2022-08-05T20:26:21.382Z,39.28
2022-08-05T20:28:53.893Z,39.74
2022-08-05T20:31:37.291Z,39.48
2022-08-05T20:34:12.914Z,39.95
2022-08-05T20:36:43.298Z,39.88
2022-08-05T20:39:12.816Z,39.80
2022-08-05T20:41:44.549Z,39.60
2022-08-05T20:44:29.880Z,40.03
2022-08-05T20:47:03.226Z,40.19
2022-08-05T20:49:37.776Z,39.85
2022-08-05T20:52:06.993Z,40.08
2022-08-05T20:54:59.822Z,40.22
2022-08-05T20:57:43.230Z,40.50
2022-08-05T21:00:40.709Z,40.49
2022-08-05T21:03:08.902Z,40.62
2022-08-05T21:05:48.098Z,40.56
2022-08-05T21:08:26.579Z,40.63
2022-08-05T21:11:09.300Z,40.71
2022-08-05T21:13:47.869Z,40.57
2022-08-05T21:16:29.728Z,40.71
2022-08-05T21:18:59.755Z,40.84
2022-08-05T21:21:26.714Z,41.03
2022-08-05T21:24:09.795Z,41.08
2022-08-05T21:26:39.736Z,41.24
2022-08-05T21:29:10.072Z,41.13
2022-08-05T21:31:41.442Z,41.36
2022-08-05T21:34:08.672Z,41.56
2022-08-05T21:36:37.511Z,41.60
2022-08-05T21:39:04.121Z,41.83
2022-08-05T21:41:34.310Z,41.56
2022-08-05T21:44:04.939Z,41.41
2022-08-05T21:46:34.627Z,41.67
2022-08-05T21:49:07.072Z,41.84
2022-08-05T21:52:23.004Z,42.04
2022-08-05T21:54:27.959Z,42.06
2022-08-05T21:57:29.902Z,42.10
2022-08-05T22:00:02.003Z,42.32
2022-08-05T22:02:39.488Z,42.12
2022-08-05T22:05:09.801Z,42.32
2022-08-05T22:07:40.261Z,42.40
2022-08-05T22:10:25.588Z,42.64
2022-08-05T22:12:58.770Z,42.58
2022-08-05T22:15:56.516Z,42.58
2022-08-05T22:18:13.103Z,42.73
2022-08-05T22:20:41.778Z,42.80
2022-08-05T22:24:02.625Z,42.61
2022-08-05T22:26:37.118Z,43.12
2022-08-05T22:29:05.212Z,43.10
2022-08-05T22:31:31.797Z,42.80
2022-08-05T22:34:20.208Z,43.19
2022-08-05T22:36:55.471Z,43.04
2022-08-05T22:39:22.613Z,43.33
2022-08-05T22:42:10.686Z,43.12
2022-08-05T22:44:35.781Z,43.70
2022-08-05T22:47:05.771Z,43.86
2022-08-05T22:50:20.258Z,43.60
2022-08-05T22:52:30.554Z,43.67
2022-08-05T22:55:01.345Z,43.89
2022-08-05T22:57:34.069Z,44.05
2022-08-05T23:00:06.004Z,44.37
2022-08-05T23:02:35.604Z,44.09
2022-08-05T23:05:15.710Z,44.42
2022-08-05T23:07:45.024Z,44.08
2022-08-05T23:10:12.341Z,44.54
2022-08-05T23:12:39.000Z,44.38
2022-08-05T23:15:08.790Z,44.41
2022-08-05T23:17:37.504Z,44.58
2022-08-05T23:20:16.844Z,44.96
2022-08-05T23:22:47.618Z,44.65
2022-08-05T23:25:50.963Z,44.90
2022-08-05T23:28:11.166Z,44.77
2022-08-05T23:30:39.825Z,45.02
2022-08-05T23:33:22.511Z,45.31
2022-08-05T23:36:00.137Z,45.26
2022-08-05T23:38:26.769Z,44.96
2022-08-05T23:40:53.569Z,45.29
2022-08-05T23:43:37.225Z,45.46
2022-08-05T23:46:20.315Z,45.27
2022-08-05T23:49:00.817Z,45.48
2022-08-05T23:51:52.920Z,45.63
2022-08-05T23:54:30.127Z,45.49
2022-08-05T23:57:03.939Z,45.76
